createdAt,value
2022-11-20T00:02:09.341Z,3.53
2022-11-20T00:05:12.028Z,3.65
2022-11-20T00:08:14.745Z,3.40
2022-11-20T00:11:22.850Z,3.70
2022-11-20T00:14:25.602Z,3.63
2022-11-20T00:17:28.231Z,3.05
2022-11-20T00:20:31.247Z,3.83
2022-11-20T00:23:33.923Z,3.70
2022-11-20T00:26:36.595Z,3.58
2022-11-20T00:29:39.240Z,3.22
2022-11-20T00:32:41.883Z,3.10
2022-11-20T00:35:44.487Z,3.45
2022-11-20T00:38:47.906Z,3.60
2022-11-20T00:41:51.193Z,3.08
2022-11-20T00:44:53.931Z,3.20
2022-11-20T00:47:56.491Z,2.83
2022-11-20T00:50:59.424Z,3.40
2022-11-20T00:54:03.191Z,3.00
2022-11-20T00:57:05.945Z,3.00
2022-11-20T01:00:09.141Z,3.40
2022-11-20T01:03:11.913Z,3.00
2022-11-20T01:06:24.765Z,3.97
2022-11-20T01:09:27.435Z,3.33
2022-11-20T01:12:30.009Z,3.10
2022-11-20T01:15:34.983Z,3.00
2022-11-20T01:18:39.485Z,3.40
2022-11-20T01:21:44.011Z,3.50
2022-11-20T01:24:46.678Z,3.00
2022-11-20T01:27:49.384Z,3.15
2022-11-20T01:30:52.136Z,3.33
2022-11-20T01:33:59.161Z,3.25
2022-11-20T01:37:01.829Z,2.92
2022-11-20T01:40:05.312Z,3.17
2022-11-20T01:43:24.412Z,2.95
2022-11-20T01:46:27.540Z,3.45
2022-11-20T01:49:45.358Z,2.80
2022-11-20T01:52:53.409Z,3.28
2022-11-20T01:55:57.927Z,3.00
2022-11-20T01:59:05.127Z,3.15
2022-11-20T02:02:07.812Z,2.92
2022-11-20T02:05:26.814Z,3.22
2022-11-20T02:08:29.994Z,3.15
2022-11-20T02:11:32.803Z,3.33
2022-11-20T02:14:35.449Z,3.15
2022-11-20T02:17:38.702Z,3.30
2022-11-20T02:20:45.162Z,3.08
2022-11-20T02:24:10.351Z,3.00
2022-11-20T02:27:17.307Z,2.90
2022-11-20T02:30:20.310Z,2.88
2022-11-20T02:33:22.996Z,3.15
2022-11-20T02:36:28.716Z,2.60
2022-11-20T02:39:31.395Z,2.92
2022-11-20T02:42:34.129Z,3.10
2022-11-20T02:45:36.966Z,2.83
2022-11-20T02:48:39.671Z,2.92
2022-11-20T02:51:42.420Z,3.03
2022-11-20T02:54:45.040Z,2.65
2022-11-20T02:57:47.637Z,2.60
2022-11-20T03:00:50.390Z,2.90
2022-11-20T03:03:55.535Z,3.22
2022-11-20T03:06:58.229Z,2.60
2022-11-20T03:10:01.105Z,2.60
2022-11-20T03:13:04.177Z,2.93
2022-11-20T03:16:15.681Z,2.58
2022-11-20T03:19:18.461Z,2.80
2022-11-20T03:22:21.256Z,2.60
2022-11-20T03:25:23.972Z,3.20
2022-11-20T03:28:26.713Z,2.40
2022-11-20T03:31:35.338Z,2.40
2022-11-20T03:34:38.051Z,2.63
2022-11-20T03:37:40.808Z,2.65
2022-11-20T03:40:43.549Z,2.50
2022-11-20T03:43:54.761Z,2.73
2022-11-20T03:46:57.348Z,2.80
2022-11-20T03:49:59.983Z,2.60
2022-11-20T03:53:02.589Z,2.10
2022-11-20T03:56:05.973Z,2.90
2022-11-20T03:59:11.571Z,2.90
2022-11-20T04:02:14.266Z,2.45
2022-11-20T04:05:16.994Z,2.50
2022-11-20T04:08:19.673Z,2.50
2022-11-20T04:11:28.966Z,2.65
2022-11-20T04:14:31.581Z,2.70
2022-11-20T04:17:34.162Z,2.45
2022-11-20T04:20:36.877Z,2.75
2022-11-20T04:23:40.130Z,2.80
2022-11-20T04:26:42.803Z,3.10
2022-11-20T04:29:45.461Z,2.30
2022-11-20T04:32:48.073Z,2.65
2022-11-20T04:35:50.699Z,2.70
2022-11-20T04:38:57.008Z,2.50
2022-11-20T04:42:17.950Z,3.13
2022-11-20T04:45:20.614Z,2.30
2022-11-20T04:48:24.079Z,2.75
2022-11-20T04:51:27.170Z,2.85
2022-11-20T04:54:31.888Z,3.22
2022-11-20T04:57:34.693Z,2.72
2022-11-20T05:00:37.433Z,2.60
2022-11-20T05:03:42.739Z,2.50
2022-11-20T05:06:46.686Z,2.75
2022-11-20T05:09:49.294Z,2.60
2022-11-20T05:12:52.098Z,2.90
2022-11-20T05:15:54.795Z,2.30
2022-11-20T05:18:58.332Z,2.78
2022-11-20T05:22:01.021Z,2.75
2022-11-20T05:25:03.736Z,2.60
2022-11-20T05:28:06.437Z,2.50
2022-11-20T05:31:11.113Z,2.40
2022-11-20T05:34:13.872Z,2.80
2022-11-20T05:37:16.403Z,2.33
2022-11-20T05:40:19.064Z,2.40
2022-11-20T05:43:21.734Z,2.83
2022-11-20T05:46:28.239Z,2.33
2022-11-20T05:49:32.121Z,2.17
2022-11-20T05:52:34.924Z,2.70
2022-11-20T05:55:37.482Z,2.47
2022-11-20T05:58:40.609Z,2.83
2022-11-20T06:01:43.469Z,2.10
2022-11-20T06:04:46.217Z,2.47
2022-11-20T06:07:51.136Z,2.67
2022-11-20T06:10:56.308Z,2.63
2022-11-20T06:13:59.013Z,2.58
2022-11-20T06:17:01.843Z,2.43
2022-11-20T06:20:04.847Z,3.00
2022-11-20T06:23:07.648Z,2.30
2022-11-20T06:26:12.581Z,2.55
2022-11-20T06:29:15.311Z,2.42
2022-11-20T06:32:17.997Z,2.80
2022-11-20T06:35:20.612Z,2.33
2022-11-20T06:38:23.226Z,2.50
2022-11-20T06:41:26.475Z,2.70
2022-11-20T06:44:29.037Z,2.83
2022-11-20T06:47:31.757Z,2.57
2022-11-20T06:50:34.463Z,2.22
2022-11-20T06:53:38.000Z,2.47
2022-11-20T06:56:40.823Z,2.90
2022-11-20T06:59:43.494Z,3.10
2022-11-20T07:02:46.251Z,2.23
2022-11-20T07:05:48.920Z,2.00
2022-11-20T07:08:53.739Z,2.40
2022-11-20T07:11:56.422Z,2.15
2022-11-20T07:14:59.343Z,3.03
2022-11-20T07:18:02.130Z,2.47
2022-11-20T07:21:06.992Z,2.40
2022-11-20T07:24:09.677Z,2.40
2022-11-20T07:27:12.323Z,2.60
2022-11-20T07:30:16.249Z,2.40
2022-11-20T07:33:19.087Z,2.50
2022-11-20T07:36:21.755Z,2.90
2022-11-20T07:39:24.594Z,2.25
2022-11-20T07:42:27.364Z,3.10
2022-11-20T07:45:30.019Z,2.80
2022-11-20T07:48:32.636Z,2.13
2022-11-20T07:51:35.376Z,2.50
2022-11-20T07:54:37.984Z,2.70
2022-11-20T07:57:41.199Z,2.30
2022-11-20T08:00:43.882Z,2.53
2022-11-20T08:03:46.594Z,2.60
2022-11-20T08:06:49.252Z,2.28
2022-11-20T08:09:51.968Z,2.60
2022-11-20T08:13:13.576Z,2.50
2022-11-20T08:16:26.762Z,2.25
2022-11-20T08:19:31.670Z,3.00
2022-11-20T08:22:34.403Z,2.10
2022-11-20T08:25:38.256Z,2.63
2022-11-20T08:28:40.957Z,2.30
2022-11-20T08:31:44.087Z,2.80
2022-11-20T08:34:47.493Z,2.60
2022-11-20T08:37:50.498Z,2.63
2022-11-20T08:41:11.917Z,2.33
2022-11-20T08:44:14.645Z,2.95
2022-11-20T08:47:17.229Z,3.13
2022-11-20T08:50:25.117Z,2.60
2022-11-20T08:53:29.476Z,2.90
2022-11-20T08:56:32.314Z,2.55
2022-11-20T09:00:04.253Z,2.85
2022-11-20T09:02:59.680Z,2.63
2022-11-20T09:06:07.291Z,2.77
2022-11-20T09:09:09.965Z,2.40
2022-11-20T09:12:12.556Z,2.80
2022-11-20T09:15:15.230Z,2.88
2022-11-20T09:18:17.894Z,2.90
2022-11-20T09:21:20.783Z,2.70
2022-11-20T09:24:23.466Z,2.40
2022-11-20T09:27:26.099Z,2.50
2022-11-20T09:30:29.047Z,2.50
2022-11-20T09:33:31.848Z,2.20
2022-11-20T09:36:34.439Z,2.30
2022-11-20T09:39:40.001Z,2.30
2022-11-20T09:42:48.593Z,2.50
2022-11-20T09:45:57.125Z,2.50
2022-11-20T09:49:18.430Z,2.40
2022-11-20T09:52:51.484Z,2.10
2022-11-20T09:55:55.208Z,2.60
2022-11-20T09:59:03.633Z,2.53
2022-11-20T10:02:24.310Z,2.35
2022-11-20T10:05:42.882Z,2.42
2022-11-20T10:09:09.616Z,2.80
2022-11-20T10:12:15.230Z,2.63
2022-11-20T10:15:27.282Z,2.70
2022-11-20T10:18:57.380Z,2.65
2022-11-20T10:22:21.145Z,2.60
2022-11-20T10:25:29.905Z,2.70
2022-11-20T10:28:55.445Z,2.75
2022-11-20T10:32:10.607Z,2.50
2022-11-20T10:35:24.613Z,3.03
2022-11-20T10:38:37.994Z,2.63
2022-11-20T10:41:42.857Z,2.37
2022-11-20T10:45:06.329Z,2.72
2022-11-20T10:48:29.223Z,3.05
2022-11-20T10:51:59.522Z,3.03
2022-11-20T10:55:07.911Z,2.90
2022-11-20T10:58:34.990Z,2.90
2022-11-20T11:01:42.916Z,2.85
2022-11-20T11:04:48.626Z,2.53
2022-11-20T11:07:55.230Z,2.75
2022-11-20T11:11:18.437Z,2.83
2022-11-20T11:14:21.535Z,2.40
2022-11-20T11:17:33.349Z,2.95
2022-11-20T11:20:52.073Z,2.75
2022-11-20T11:24:26.918Z,3.03
2022-11-20T11:27:26.165Z,3.05
2022-11-20T11:30:32.057Z,2.70
2022-11-20T11:33:34.942Z,2.70
2022-11-20T11:36:40.391Z,2.67
2022-11-20T11:39:49.371Z,2.65
2022-11-20T11:43:00.815Z,2.83
2022-11-20T11:46:23.716Z,3.00
2022-11-20T11:49:26.595Z,2.55
2022-11-20T11:52:32.384Z,3.25
2022-11-20T11:55:38.009Z,2.50
2022-11-20T11:58:53.903Z,2.85
2022-11-20T12:02:04.218Z,2.80
2022-11-20T12:05:33.375Z,3.10
2022-11-20T12:08:44.269Z,3.00
2022-11-20T12:11:54.649Z,2.95
2022-11-20T12:14:58.354Z,2.80
2022-11-20T12:18:01.809Z,2.73
2022-11-20T12:21:21.869Z,2.80
2022-11-20T12:24:43.042Z,3.05
2022-11-20T12:27:58.146Z,2.88
2022-11-20T12:31:09.842Z,3.38
2022-11-20T12:34:18.635Z,3.20
2022-11-20T12:37:49.524Z,2.92
2022-11-20T12:41:05.342Z,3.10
2022-11-20T12:44:47.996Z,2.85
2022-11-20T12:48:21.473Z,3.13
2022-11-20T12:51:35.848Z,3.13
2022-11-20T12:55:13.726Z,2.95
2022-11-20T12:58:29.091Z,2.55
2022-11-20T13:01:41.976Z,3.13
2022-11-20T13:04:50.194Z,3.60
2022-11-20T13:07:54.815Z,3.20
2022-11-20T13:11:20.904Z,3.40
2022-11-20T13:14:44.795Z,3.80
2022-11-20T13:17:59.022Z,3.30
2022-11-20T13:21:01.783Z,3.03
2022-11-20T13:24:09.891Z,3.50
2022-11-20T13:27:12.903Z,3.25
2022-11-20T13:30:20.263Z,3.30
2022-11-20T13:33:38.766Z,3.50
2022-11-20T13:36:53.503Z,3.40
2022-11-20T13:40:07.359Z,3.23
2022-11-20T13:43:36.717Z,3.28
2022-11-20T13:46:45.737Z,3.70
2022-11-20T13:49:49.574Z,3.38
2022-11-20T13:53:40.630Z,3.80
2022-11-20T13:56:55.078Z,2.80
2022-11-20T14:00:04.592Z,3.00
2022-11-20T14:03:51.164Z,3.47
2022-11-20T14:06:50.529Z,2.78
2022-11-20T14:09:56.675Z,3.45
2022-11-20T14:13:00.179Z,3.57
2022-11-20T14:16:06.072Z,3.28
2022-11-20T14:19:21.226Z,3.63
2022-11-20T14:22:31.230Z,3.13
2022-11-20T14:25:34.397Z,3.58
2022-11-20T14:28:37.156Z,3.17
2022-11-20T14:31:41.910Z,3.67
2022-11-20T14:34:46.860Z,3.47
2022-11-20T14:37:49.701Z,3.38
2022-11-20T14:40:53.217Z,3.45
2022-11-20T14:43:58.985Z,3.10
2022-11-20T14:47:04.144Z,3.33
2022-11-20T14:50:19.091Z,3.88
2022-11-20T14:53:26.686Z,3.60
2022-11-20T14:56:29.390Z,3.20
2022-11-20T14:59:34.341Z,4.20
2022-11-20T15:02:46.182Z,3.85
2022-11-20T15:05:50.620Z,3.55
2022-11-20T15:08:56.623Z,3.50
2022-11-20T15:12:04.560Z,3.95
2022-11-20T15:15:11.458Z,3.70
2022-11-20T15:18:16.301Z,3.60
2022-11-20T15:21:22.940Z,3.80
2022-11-20T15:24:26.264Z,3.67
2022-11-20T15:27:29.628Z,3.63
2022-11-20T15:30:32.783Z,3.60
2022-11-20T15:33:36.867Z,4.15
2022-11-20T15:36:41.181Z,4.13
2022-11-20T15:39:45.970Z,3.83
2022-11-20T15:43:12.869Z,3.90
2022-11-20T15:46:25.279Z,3.93
2022-11-20T15:49:28.519Z,3.60
2022-11-20T15:52:41.521Z,3.40
2022-11-20T15:55:46.734Z,3.30
2022-11-20T15:58:49.860Z,4.10
2022-11-20T16:01:52.949Z,3.63
2022-11-20T16:04:55.971Z,3.67
2022-11-20T16:07:59.189Z,3.65
2022-11-20T16:11:02.589Z,3.47
2022-11-20T16:14:24.481Z,3.72
2022-11-20T16:17:43.579Z,3.27
2022-11-20T16:20:48.811Z,3.97
2022-11-20T16:23:51.874Z,4.25
2022-11-20T16:26:56.330Z,4.10
2022-11-20T16:29:59.571Z,4.32
2022-11-20T16:33:03.650Z,4.10
2022-11-20T16:36:16.566Z,3.80
2022-11-20T16:39:23.606Z,4.25
2022-11-20T16:42:27.852Z,3.75
2022-11-20T16:45:33.834Z,3.80
2022-11-20T16:48:37.477Z,3.60
2022-11-20T16:51:40.828Z,3.75
2022-11-20T16:54:43.966Z,3.72
2022-11-20T16:57:47.031Z,3.60
2022-11-20T17:00:51.836Z,3.72
2022-11-20T17:04:02.036Z,4.10
2022-11-20T17:07:08.128Z,3.83
2022-11-20T17:10:11.481Z,3.60
2022-11-20T17:13:14.166Z,4.60
2022-11-20T17:16:20.148Z,3.97
2022-11-20T17:19:23.793Z,3.80
2022-11-20T17:22:26.859Z,4.00
2022-11-20T17:25:34.910Z,3.97
2022-11-20T17:28:39.539Z,4.25
2022-11-20T17:31:43.838Z,4.18
2022-11-20T17:34:47.560Z,4.27
2022-11-20T17:37:50.834Z,4.38
2022-11-20T17:40:54.053Z,4.30
2022-11-20T17:43:59.777Z,4.47
2022-11-20T17:47:03.254Z,3.83
2022-11-20T17:50:06.973Z,4.80
2022-11-20T17:53:10.160Z,3.33
2022-11-20T17:56:32.433Z,4.72
2022-11-20T17:59:35.737Z,4.05
2022-11-20T18:02:39.931Z,3.90
2022-11-20T18:05:43.055Z,4.63
2022-11-20T18:08:47.749Z,3.85
2022-11-20T18:11:50.818Z,4.13
2022-11-20T18:14:53.621Z,4.55
2022-11-20T18:18:06.160Z,3.95
2022-11-20T18:21:09.326Z,4.27
2022-11-20T18:24:12.721Z,3.97
2022-11-20T18:27:19.788Z,4.10
2022-11-20T18:30:23.005Z,4.82
2022-11-20T18:33:28.491Z,4.72
2022-11-20T18:36:33.089Z,4.00
2022-11-20T18:39:37.383Z,4.10
2022-11-20T18:46:22.374Z,4.72
2022-11-20T18:49:26.684Z,4.57
2022-11-20T18:52:31.011Z,4.50
2022-11-20T18:55:33.755Z,4.30
2022-11-20T18:58:37.445Z,5.10
2022-11-20T19:01:42.579Z,4.22
2022-11-20T19:04:46.850Z,4.57
2022-11-20T19:07:50.194Z,5.13
2022-11-20T19:10:53.727Z,4.70
2022-11-20T19:13:57.158Z,4.57
2022-11-20T19:17:00.355Z,5.05
2022-11-20T19:20:08.987Z,5.38
2022-11-20T19:23:14.010Z,4.37
2022-11-20T19:26:18.158Z,5.15
2022-11-20T19:29:22.316Z,4.78
2022-11-20T19:32:25.616Z,5.10
2022-11-20T19:35:31.687Z,5.55
2022-11-20T19:38:35.002Z,4.77
2022-11-20T19:41:40.409Z,4.97
2022-11-20T19:44:43.191Z,4.63
2022-11-20T19:48:06.753Z,4.80
2022-11-20T19:51:17.298Z,4.60
2022-11-20T19:54:20.372Z,4.57
2022-11-20T19:57:23.550Z,4.65
2022-11-20T20:00:31.248Z,4.80
2022-11-20T20:03:35.952Z,5.18
2022-11-20T20:06:43.361Z,4.85
2022-11-20T20:09:51.015Z,4.53
2022-11-20T20:12:55.758Z,4.57
2022-11-20T20:15:58.932Z,4.45
2022-11-20T20:19:04.585Z,4.30
2022-11-20T20:22:07.651Z,4.63
2022-11-20T20:25:11.111Z,4.50
2022-11-20T20:28:14.388Z,4.75
2022-11-20T20:31:23.489Z,4.38
2022-11-20T20:34:30.238Z,4.30
2022-11-20T20:37:33.516Z,5.30
2022-11-20T20:40:36.935Z,4.20
2022-11-20T20:43:58.523Z,4.32
2022-11-20T20:47:01.522Z,4.80
2022-11-20T20:50:07.106Z,4.00
2022-11-20T20:53:10.879Z,5.28
2022-11-20T20:56:14.086Z,4.37
2022-11-20T20:59:17.352Z,4.38
2022-11-20T21:02:21.026Z,4.45
2022-11-20T21:05:28.994Z,4.70
2022-11-20T21:08:33.875Z,5.25
2022-11-20T21:11:36.505Z,4.10
2022-11-20T21:14:39.340Z,4.57
2022-11-20T21:17:44.759Z,5.00
2022-11-20T21:21:06.584Z,4.57
2022-11-20T21:24:09.657Z,4.65
2022-11-20T21:27:12.340Z,4.33
2022-11-20T21:30:15.325Z,4.55
2022-11-20T21:33:18.075Z,4.50
2022-11-20T21:36:23.573Z,4.88
2022-11-20T21:39:26.194Z,4.30
2022-11-20T21:42:29.018Z,4.70
2022-11-20T21:45:31.623Z,5.20
2022-11-20T21:48:36.751Z,5.20
2022-11-20T21:51:39.576Z,5.07
2022-11-20T21:54:42.190Z,4.13
2022-11-20T21:57:45.368Z,4.53
2022-11-20T22:00:48.221Z,4.13
2022-11-20T22:03:57.324Z,4.53
2022-11-20T22:06:59.976Z,4.68
2022-11-20T22:10:02.737Z,4.47
2022-11-20T22:13:24.637Z,4.63
2022-11-20T22:16:27.550Z,5.05
2022-11-20T22:19:30.253Z,4.72
2022-11-20T22:22:32.978Z,4.53
2022-11-20T22:25:35.711Z,5.22
2022-11-20T22:28:39.335Z,4.70
2022-11-20T22:31:41.957Z,4.63
2022-11-20T22:34:44.633Z,4.57
2022-11-20T22:37:50.072Z,4.30
2022-11-20T22:41:11.671Z,4.90
2022-11-20T22:44:15.577Z,5.10
2022-11-20T22:47:18.279Z,4.57
2022-11-20T22:50:21.008Z,4.47
2022-11-20T22:53:23.625Z,4.38
2022-11-20T22:56:26.334Z,4.22
2022-11-20T22:59:29.094Z,4.80
2022-11-20T23:02:31.719Z,5.18
2022-11-20T23:05:34.398Z,5.07
2022-11-20T23:08:38.292Z,4.75
2022-11-20T23:11:41.051Z,4.57
2022-11-20T23:14:43.623Z,4.73
2022-11-20T23:17:46.290Z,4.65
2022-11-20T23:20:48.913Z,5.10
2022-11-20T23:23:56.294Z,5.00
2022-11-20T23:26:58.901Z,5.78
2022-11-20T23:30:01.707Z,4.40
2022-11-20T23:33:04.848Z,4.38
2022-11-20T23:36:08.532Z,4.68
2022-11-20T23:39:11.371Z,4.53
2022-11-20T23:42:14.095Z,4.65
2022-11-20T23:45:16.650Z,4.20
2022-11-20T23:48:20.696Z,4.93
2022-11-20T23:51:23.312Z,4.55
2022-11-20T23:54:26.140Z,4.57
2022-11-20T23:57:29.077Z,4.57
